This is the latest recevied weather packets stored in our database for station/object OE5RBO. If no packets are shown the sender has not sent any weather packets the latest 10 day(s).
| Time | Temp. | Humidity | Pressure | Rain* | Wind** | Luminosity | Snow |
|---|---|---|---|---|---|---|---|
| 1777362147 | 15.56° C | 58% | 1016.9 hPa | 0 mm | - | - | - |
| 1777361547 | 14.44° C | 60% | 1016.9 hPa | 0 mm | - | - | - |
| 1777360947 | 13.89° C | 67% | 1016.5 hPa | 0 mm | - | - | - |
| 1777360346 | 12.78° C | 71% | 1016.9 hPa | 0 mm | - | - | - |
| 1777359745 | 11.67° C | 78% | 1016.9 hPa | 0 mm | - | - | - |
| 1777359146 | 11.11° C | 80% | 1016.9 hPa | 0 mm | - | - | - |
| 1777358545 | 10.56° C | 80% | 1016.9 hPa | 0 mm | - | - | - |
| 1777357946 | 10° C | 81% | 1016.8 hPa | 0 mm | - | - | - |
| 1777357344 | 9.44° C | 82% | 1016.8 hPa | 0 mm | - | - | - |
| 1777356745 | 9.44° C | 81% | 1016.7 hPa | 0 mm | - | - | - |
| 1777356143 | 8.89° C | 83% | 1016.7 hPa | 0 mm | - | - | - |
| 1777355544 | 8.33° C | 84% | 1016.8 hPa | 0 mm | - | - | - |
| 1777354944 | 8.33° C | 83% | 1016.9 hPa | 0 mm | - | - | - |
| 1777354342 | 8.33° C | 83% | 1016.8 hPa | 0 mm | - | - | - |
| 1777353742 | 8.33° C | 82% | 1016.8 hPa | 0 mm | - | - | - |
| 1777353143 | 7.78° C | 84% | 1016.9 hPa | 0 mm | - | - | - |
| 1777352542 | 7.22° C | 85% | 1016.9 hPa | 0 mm | - | - | - |
| 1777351941 | 7.22° C | 84% | 1016.8 hPa | 0 mm | - | - | - |
| 1777351340 | 7.22° C | 84% | 1016.6 hPa | 0 mm | - | - | - |
| 1777350740 | 6.67° C | 85% | 1016.8 hPa | 0 mm | - | - | - |
| 1777350140 | 6.67° C | 85% | 1016.7 hPa | 0 mm | - | - | - |
| 1777349541 | 6.67° C | 85% | 1016.6 hPa | 0 mm | - | - | - |
| 1777348940 | 7.22° C | 84% | 1016.5 hPa | 0 mm | - | - | - |
| 1777348340 | 7.22° C | 84% | 1016.4 hPa | 0 mm | - | - | - |
| 1777347740 | 6.11° C | 87% | 1016.5 hPa | 0 mm | - | - | - |
* Rain since midnight (hover to see other rain measurements)
** Current wind speed in m/s (hover to see current wind gust speed)